sensor_id;sensor_type;location;lat;lon;timestamp;pressure;altitude;pressure_sealevel;temperature;humidity
69570;BME280;56781;42.292;23.146;2023-01-27T00:00:55;94718.19;;;-0.80;100.00
69570;BME280;56781;42.292;23.146;2023-01-27T00:03:23;94703.16;;;-0.90;100.00
69570;BME280;56781;42.292;23.146;2023-01-27T00:05:51;94739.03;;;-0.73;100.00
69570;BME280;56781;42.292;23.146;2023-01-27T00:08:18;94695.00;;;-0.88;100.00
69570;BME280;56781;42.292;23.146;2023-01-27T00:10:45;94702.38;;;-0.85;100.00
69570;BME280;56781;42.292;23.146;2023-01-27T00:13:13;94700.53;;;-0.84;100.00
69570;BME280;56781;42.292;23.146;2023-01-27T00:15:57;94718.31;;;-0.70;100.00
69570;BME280;56781;42.292;23.146;2023-01-27T00:18:25;94693.75;;;-0.80;100.00
69570;BME280;56781;42.292;23.146;2023-01-27T00:20:52;94735.47;;;-0.62;100.00
69570;BME280;56781;42.292;23.146;2023-01-27T00:23:37;94710.97;;;-0.68;100.00
69570;BME280;56781;42.292;23.146;2023-01-27T00:26:23;94676.06;;;-0.90;100.00
69570;BME280;56781;42.292;23.146;2023-01-27T00:28:50;94724.41;;;-0.64;100.00
69570;BME280;56781;42.292;23.146;2023-01-27T00:31:17;94699.66;;;-0.68;100.00
69570;BME280;56781;42.292;23.146;2023-01-27T00:34:04;94679.06;;;-0.81;100.00
69570;BME280;56781;42.292;23.146;2023-01-27T00:36:39;94712.88;;;-0.58;100.00
69570;BME280;56781;42.292;23.146;2023-01-27T00:39:08;94672.19;;;-0.82;100.00
69570;BME280;56781;42.292;23.146;2023-01-27T00:41:36;94717.19;;;-0.47;100.00
69570;BME280;56781;42.292;23.146;2023-01-27T00:44:03;94681.81;;;-0.66;100.00
69570;BME280;56781;42.292;23.146;2023-01-27T00:46:31;94672.88;;;-0.65;100.00
69570;BME280;56781;42.292;23.146;2023-01-27T00:48:59;94716.25;;;-0.30;100.00
69570;BME280;56781;42.292;23.146;2023-01-27T00:51:26;94682.06;;;-0.68;100.00
69570;BME280;56781;42.292;23.146;2023-01-27T00:53:53;94716.41;;;-0.47;100.00
69570;BME280;56781;42.292;23.146;2023-01-27T00:56:20;94721.47;;;-0.40;100.00
69570;BME280;56781;42.292;23.146;2023-01-27T00:58:47;94707.97;;;-0.49;100.00
69570;BME280;56781;42.292;23.146;2023-01-27T01:01:15;94706.66;;;-0.47;100.00
69570;BME280;56781;42.292;23.146;2023-01-27T01:03:43;94728.38;;;-0.29;100.00
69570;BME280;56781;42.292;23.146;2023-01-27T01:06:15;94727.25;;;-0.38;100.00
69570;BME280;56781;42.292;23.146;2023-01-27T01:08:42;94721.97;;;-0.38;100.00
69570;BME280;56781;42.292;23.146;2023-01-27T01:11:13;94726.00;;;-0.31;100.00
69570;BME280;56781;42.292;23.146;2023-01-27T01:13:41;94705.53;;;-0.56;100.00
69570;BME280;56781;42.292;23.146;2023-01-27T01:16:11;94695.00;;;-0.61;100.00
69570;BME280;56781;42.292;23.146;2023-01-27T01:18:39;94691.81;;;-0.63;100.00
69570;BME280;56781;42.292;23.146;2023-01-27T01:21:06;94726.44;;;-0.39;100.00
69570;BME280;56781;42.292;23.146;2023-01-27T01:23:36;94720.44;;;-0.34;100.00
69570;BME280;56781;42.292;23.146;2023-01-27T01:26:04;94686.06;;;-0.60;100.00
69570;BME280;56781;42.292;23.146;2023-01-27T01:28:32;94707.06;;;-0.60;100.00
69570;BME280;56781;42.292;23.146;2023-01-27T01:31:06;94709.69;;;-0.60;100.00
69570;BME280;56781;42.292;23.146;2023-01-27T01:33:35;94735.13;;;-0.38;100.00
69570;BME280;56781;42.292;23.146;2023-01-27T01:36:04;94704.53;;;-0.50;100.00
69570;BME280;56781;42.292;23.146;2023-01-27T01:38:32;94712.75;;;-0.46;100.00
69570;BME280;56781;42.292;23.146;2023-01-27T01:40:59;94718.84;;;-0.35;100.00
69570;BME280;56781;42.292;23.146;2023-01-27T01:43:26;94713.56;;;-0.40;100.00
69570;BME280;56781;42.292;23.146;2023-01-27T01:45:58;94695.16;;;-0.40;100.00
69570;BME280;56781;42.292;23.146;2023-01-27T01:48:38;94686.19;;;-0.45;100.00
69570;BME280;56781;42.292;23.146;2023-01-27T01:54:10;94659.56;;;-0.53;100.00
69570;BME280;56781;42.292;23.146;2023-01-27T01:59:22;94679.91;;;-0.38;100.00
69570;BME280;56781;42.292;23.146;2023-01-27T02:01:54;94644.88;;;-0.49;100.00
69570;BME280;56781;42.292;23.146;2023-01-27T02:04:26;94643.00;;;-0.54;100.00
69570;BME280;56781;42.292;23.146;2023-01-27T02:07:07;94642.50;;;-0.51;100.00
69570;BME280;56781;42.292;23.146;2023-01-27T02:09:37;94630.03;;;-0.65;100.00
69570;BME280;56781;42.292;23.146;2023-01-27T02:12:05;94661.94;;;-0.52;100.00
69570;BME280;56781;42.292;23.146;2023-01-27T02:14:32;94649.25;;;-0.60;100.00
69570;BME280;56781;42.292;23.146;2023-01-27T02:17:01;94643.47;;;-0.62;100.00
69570;BME280;56781;42.292;23.146;2023-01-27T02:22:35;94668.41;;;-0.32;100.00
69570;BME280;56781;42.292;23.146;2023-01-27T02:25:16;94668.13;;;-0.31;100.00
69570;BME280;56781;42.292;23.146;2023-01-27T02:27:45;94667.88;;;-0.34;100.00
69570;BME280;56781;42.292;23.146;2023-01-27T02:30:12;94665.19;;;-0.39;100.00
69570;BME280;56781;42.292;23.146;2023-01-27T02:32:39;94665.19;;;-0.39;100.00
69570;BME280;56781;42.292;23.146;2023-01-27T02:35:10;94676.22;;;-0.42;100.00
69570;BME280;56781;42.292;23.146;2023-01-27T02:37:40;94631.38;;;-0.63;100.00
69570;BME280;56781;42.292;23.146;2023-01-27T02:40:09;94668.88;;;-0.40;100.00
69570;BME280;56781;42.292;23.146;2023-01-27T02:42:36;94674.91;;;-0.40;100.00
69570;BME280;56781;42.292;23.146;2023-01-27T02:45:04;94651.13;;;-0.55;100.00
69570;BME280;56781;42.292;23.146;2023-01-27T02:47:31;94661.75;;;-0.45;100.00
69570;BME280;56781;42.292;23.146;2023-01-27T02:49:58;94675.75;;;-0.34;100.00
69570;BME280;56781;42.292;23.146;2023-01-27T02:52:25;94655.66;;;-0.51;100.00
69570;BME280;56781;42.292;23.146;2023-01-27T02:54:52;94671.53;;;-0.35;100.00
69570;BME280;56781;42.292;23.146;2023-01-27T02:57:19;94664.91;;;-0.43;100.00
69570;BME280;56781;42.292;23.146;2023-01-27T02:59:47;94661.00;;;-0.35;100.00
69570;BME280;56781;42.292;23.146;2023-01-27T03:02:14;94647.97;;;-0.57;100.00
69570;BME280;56781;42.292;23.146;2023-01-27T03:04:48;94637.09;;;-0.71;100.00
69570;BME280;56781;42.292;23.146;2023-01-27T03:07:15;94637.34;;;-0.73;100.00
69570;BME280;56781;42.292;23.146;2023-01-27T03:09:42;94635.59;;;-0.62;100.00
69570;BME280;56781;42.292;23.146;2023-01-27T03:12:10;94639.84;;;-0.56;100.00
69570;BME280;56781;42.292;23.146;2023-01-27T03:14:49;94640.97;;;-0.41;100.00
69570;BME280;56781;42.292;23.146;2023-01-27T03:17:36;94636.00;;;-0.43;100.00
69570;BME280;56781;42.292;23.146;2023-01-27T03:20:22;94620.91;;;-0.58;100.00
69570;BME280;56781;42.292;23.146;2023-01-27T03:22:49;94627.19;;;-0.59;100.00
69570;BME280;56781;42.292;23.146;2023-01-27T03:25:16;94614.25;;;-0.65;100.00
69570;BME280;56781;42.292;23.146;2023-01-27T03:27:43;94614.25;;;-0.65;100.00
69570;BME280;56781;42.292;23.146;2023-01-27T03:30:11;94597.94;;;-0.73;100.00
69570;BME280;56781;42.292;23.146;2023-01-27T03:32:38;94603.59;;;-0.54;100.00
69570;BME280;56781;42.292;23.146;2023-01-27T03:35:13;94571.94;;;-0.69;100.00
69570;BME280;56781;42.292;23.146;2023-01-27T03:37:42;94561.44;;;-0.69;100.00
69570;BME280;56781;42.292;23.146;2023-01-27T03:40:27;94556.88;;;-0.79;100.00
69570;BME280;56781;42.292;23.146;2023-01-27T03:43:13;94584.09;;;-0.58;100.00
69570;BME280;56781;42.292;23.146;2023-01-27T03:45:59;94589.66;;;-0.54;100.00
69570;BME280;56781;42.292;23.146;2023-01-27T03:48:53;94566.38;;;-0.78;100.00
69570;BME280;56781;42.292;23.146;2023-01-27T03:51:22;94589.34;;;-0.58;100.00
69570;BME280;56781;42.292;23.146;2023-01-27T03:53:50;94607.88;;;-0.42;100.00
69570;BME280;56781;42.292;23.146;2023-01-27T03:56:19;94556.59;;;-0.82;100.00
69570;BME280;56781;42.292;23.146;2023-01-27T03:58:48;94568.44;;;-0.80;100.00
69570;BME280;56781;42.292;23.146;2023-01-27T04:01:18;94595.91;;;-0.60;100.00
69570;BME280;56781;42.292;23.146;2023-01-27T04:03:46;94612.03;;;-0.47;100.00
69570;BME280;56781;42.292;23.146;2023-01-27T04:06:35;94609.38;;;-0.52;100.00
69570;BME280;56781;42.292;23.146;2023-01-27T04:09:30;94613.03;;;-0.53;100.00
69570;BME280;56781;42.292;23.146;2023-01-27T04:12:00;94601.34;;;-0.72;100.00
69570;BME280;56781;42.292;23.146;2023-01-27T04:16:57;94613.69;;;-0.73;100.00
69570;BME280;56781;42.292;23.146;2023-01-27T04:19:25;94643.00;;;-0.54;100.00
69570;BME280;56781;42.292;23.146;2023-01-27T04:21:53;94624.25;;;-0.68;100.00
69570;BME280;56781;42.292;23.146;2023-01-27T04:24:20;94667.03;;;-0.40;100.00
69570;BME280;56781;42.292;23.146;2023-01-27T04:26:55;94665.66;;;-0.48;100.00
69570;BME280;56781;42.292;23.146;2023-01-27T04:29:25;94645.38;;;-0.52;100.00
69570;BME280;56781;42.292;23.146;2023-01-27T04:31:53;94649.97;;;-0.37;100.00
69570;BME280;56781;42.292;23.146;2023-01-27T04:34:20;94645.47;;;-0.42;100.00
69570;BME280;56781;42.292;23.146;2023-01-27T04:36:47;94626.16;;;-0.58;100.00
69570;BME280;56781;42.292;23.146;2023-01-27T04:39:15;94645.69;;;-0.49;100.00
69570;BME280;56781;42.292;23.146;2023-01-27T04:41:43;94610.84;;;-0.66;100.00
69570;BME280;56781;42.292;23.146;2023-01-27T04:44:11;94629.91;;;-0.49;100.00
69570;BME280;56781;42.292;23.146;2023-01-27T04:46:38;94626.56;;;-0.71;100.00
69570;BME280;56781;42.292;23.146;2023-01-27T04:49:06;94643.53;;;-0.52;100.00
69570;BME280;56781;42.292;23.146;2023-01-27T04:51:34;94650.63;;;-0.52;100.00
69570;BME280;56781;42.292;23.146;2023-01-27T04:54:01;94620.25;;;-0.75;100.00
69570;BME280;56781;42.292;23.146;2023-01-27T04:56:40;94651.41;;;-0.57;100.00
69570;BME280;56781;42.292;23.146;2023-01-27T04:59:11;94648.88;;;-0.74;100.00
69570;BME280;56781;42.292;23.146;2023-01-27T05:01:39;94648.00;;;-0.52;100.00
69570;BME280;56781;42.292;23.146;2023-01-27T05:04:06;94621.13;;;-0.64;100.00
69570;BME280;56781;42.292;23.146;2023-01-27T05:06:33;94658.31;;;-0.46;100.00
69570;BME280;56781;42.292;23.146;2023-01-27T05:09:01;94625.31;;;-0.63;100.00
69570;BME280;56781;42.292;23.146;2023-01-27T05:11:28;94659.34;;;-0.47;100.00
69570;BME280;56781;42.292;23.146;2023-01-27T05:13:56;94633.47;;;-0.60;100.00
69570;BME280;56781;42.292;23.146;2023-01-27T05:16:23;94652.63;;;-0.32;100.00
69570;BME280;56781;42.292;23.146;2023-01-27T05:18:51;94642.34;;;-0.34;100.00
69570;BME280;56781;42.292;23.146;2023-01-27T05:21:20;94615.09;;;-0.60;100.00
69570;BME280;56781;42.292;23.146;2023-01-27T05:23:48;94625.94;;;-0.51;100.00
69570;BME280;56781;42.292;23.146;2023-01-27T05:26:20;94637.38;;;-0.30;100.00
69570;BME280;56781;42.292;23.146;2023-01-27T05:28:49;94598.28;;;-0.59;100.00
69570;BME280;56781;42.292;23.146;2023-01-27T05:31:21;94642.09;;;-0.37;100.00
69570;BME280;56781;42.292;23.146;2023-01-27T05:33:51;94634.66;;;-0.46;100.00
69570;BME280;56781;42.292;23.146;2023-01-27T05:36:20;94656.31;;;-0.28;100.00
69570;BME280;56781;42.292;23.146;2023-01-27T05:38:47;94633.88;;;-0.46;100.00
69570;BME280;56781;42.292;23.146;2023-01-27T05:41:16;94638.81;;;-0.50;100.00
69570;BME280;56781;42.292;23.146;2023-01-27T05:43:44;94627.16;;;-0.64;100.00
69570;BME280;56781;42.292;23.146;2023-01-27T05:46:14;94640.31;;;-0.64;100.00
69570;BME280;56781;42.292;23.146;2023-01-27T05:48:46;94641.47;;;-0.82;100.00
69570;BME280;56781;42.292;23.146;2023-01-27T05:51:15;94629.16;;;-0.76;100.00
69570;BME280;56781;42.292;23.146;2023-01-27T05:53:43;94637.97;;;-0.60;100.00
69570;BME280;56781;42.292;23.146;2023-01-27T05:56:12;94628.09;;;-0.80;100.00
69570;BME280;56781;42.292;23.146;2023-01-27T05:58:40;94667.38;;;-0.63;100.00
69570;BME280;56781;42.292;23.146;2023-01-27T06:01:16;94654.94;;;-0.73;100.00
69570;BME280;56781;42.292;23.146;2023-01-27T06:03:45;94658.09;;;-0.71;100.00
69570;BME280;56781;42.292;23.146;2023-01-27T06:06:14;94639.19;;;-0.68;100.00
69570;BME280;56781;42.292;23.146;2023-01-27T06:08:41;94615.00;;;-0.75;100.00
69570;BME280;56781;42.292;23.146;2023-01-27T06:11:09;94655.00;;;-0.63;100.00
69570;BME280;56781;42.292;23.146;2023-01-27T06:13:36;94682.25;;;-0.42;100.00
69570;BME280;56781;42.292;23.146;2023-01-27T06:16:12;94687.00;;;-0.39;100.00
69570;BME280;56781;42.292;23.146;2023-01-27T06:18:40;94681.31;;;-0.26;100.00
69570;BME280;56781;42.292;23.146;2023-01-27T06:21:09;94670.03;;;-0.26;100.00
69570;BME280;56781;42.292;23.146;2023-01-27T06:23:37;94646.56;;;-0.38;100.00
69570;BME280;56781;42.292;23.146;2023-01-27T06:26:11;94689.84;;;-0.13;100.00
69570;BME280;56781;42.292;23.146;2023-01-27T06:28:38;94696.75;;;-0.02;100.00
69570;BME280;56781;42.292;23.146;2023-01-27T06:31:14;94633.72;;;-0.29;100.00
69570;BME280;56781;42.292;23.146;2023-01-27T06:33:42;94702.09;;;0.13;100.00
69570;BME280;56781;42.292;23.146;2023-01-27T06:36:15;94662.25;;;-0.11;100.00
69570;BME280;56781;42.292;23.146;2023-01-27T06:38:43;94657.78;;;-0.10;100.00
69570;BME280;56781;42.292;23.146;2023-01-27T06:41:11;94653.00;;;-0.18;100.00
69570;BME280;56781;42.292;23.146;2023-01-27T06:43:38;94688.03;;;-0.08;100.00
69570;BME280;56781;42.292;23.146;2023-01-27T06:46:05;94671.09;;;-0.27;100.00
69570;BME280;56781;42.292;23.146;2023-01-27T06:48:33;94680.03;;;-0.23;100.00
69570;BME280;56781;42.292;23.146;2023-01-27T06:51:00;94682.19;;;-0.15;100.00
69570;BME280;56781;42.292;23.146;2023-01-27T06:53:27;94683.84;;;-0.04;100.00
69570;BME280;56781;42.292;23.146;2023-01-27T06:55:57;94668.09;;;0.02;100.00
69570;BME280;56781;42.292;23.146;2023-01-27T06:58:25;94658.91;;;0.04;100.00
69570;BME280;56781;42.292;23.146;2023-01-27T07:00:52;94641.50;;;-0.02;100.00
69570;BME280;56781;42.292;23.146;2023-01-27T07:03:19;94678.91;;;0.10;100.00
69570;BME280;56781;42.292;23.146;2023-01-27T07:05:46;94682.44;;;0.26;100.00
69570;BME280;56781;42.292;23.146;2023-01-27T07:08:14;94679.84;;;0.31;100.00
69570;BME280;56781;42.292;23.146;2023-01-27T07:10:41;94685.91;;;0.37;100.00
69570;BME280;56781;42.292;23.146;2023-01-27T07:13:12;94652.97;;;0.29;100.00
69570;BME280;56781;42.292;23.146;2023-01-27T07:15:40;94689.97;;;0.60;100.00
69570;BME280;56781;42.292;23.146;2023-01-27T07:18:09;94672.47;;;0.33;100.00
69570;BME280;56781;42.292;23.146;2023-01-27T07:20:36;94669.81;;;0.28;100.00
69570;BME280;56781;42.292;23.146;2023-01-27T07:23:04;94673.47;;;0.27;100.00
69570;BME280;56781;42.292;23.146;2023-01-27T07:25:33;94700.81;;;0.21;100.00
69570;BME280;56781;42.292;23.146;2023-01-27T07:28:02;94660.78;;;0.09;100.00
69570;BME280;56781;42.292;23.146;2023-01-27T07:30:29;94680.19;;;0.03;100.00
69570;BME280;56781;42.292;23.146;2023-01-27T07:33:09;94675.13;;;-0.09;100.00
69570;BME280;56781;42.292;23.146;2023-01-27T07:35:38;94682.56;;;0.04;100.00
69570;BME280;56781;42.292;23.146;2023-01-27T07:38:05;94634.56;;;-0.18;100.00
69570;BME280;56781;42.292;23.146;2023-01-27T07:40:33;94685.56;;;0.18;100.00
69570;BME280;56781;42.292;23.146;2023-01-27T07:43:01;94670.22;;;0.05;100.00
69570;BME280;56781;42.292;23.146;2023-01-27T07:45:29;94679.22;;;0.14;100.00
69570;BME280;56781;42.292;23.146;2023-01-27T07:48:06;94667.13;;;0.18;100.00
69570;BME280;56781;42.292;23.146;2023-01-27T07:50:34;94683.09;;;0.59;100.00
69570;BME280;56781;42.292;23.146;2023-01-27T07:53:03;94694.56;;;0.95;100.00
69570;BME280;56781;42.292;23.146;2023-01-27T07:55:31;94673.72;;;0.83;100.00
69570;BME280;56781;42.292;23.146;2023-01-27T07:57:59;94678.50;;;1.02;100.00
69570;BME280;56781;42.292;23.146;2023-01-27T08:00:26;94669.00;;;0.91;99.91
69570;BME280;56781;42.292;23.146;2023-01-27T08:02:55;94687.69;;;0.94;100.00
69570;BME280;56781;42.292;23.146;2023-01-27T08:05:23;94670.53;;;0.76;100.00
69570;BME280;56781;42.292;23.146;2023-01-27T08:07:53;94661.53;;;0.67;100.00
69570;BME280;56781;42.292;23.146;2023-01-27T08:10:23;94655.75;;;0.70;100.00
69570;BME280;56781;42.292;23.146;2023-01-27T08:12:50;94660.50;;;0.63;100.00
69570;BME280;56781;42.292;23.146;2023-01-27T08:15:17;94684.75;;;0.75;100.00
69570;BME280;56781;42.292;23.146;2023-01-27T08:17:55;94677.72;;;1.01;100.00
69570;BME280;56781;42.292;23.146;2023-01-27T08:20:24;94646.28;;;0.69;100.00
69570;BME280;56781;42.292;23.146;2023-01-27T08:22:52;94644.72;;;0.78;100.00
69570;BME280;56781;42.292;23.146;2023-01-27T08:25:20;94632.63;;;0.82;100.00
69570;BME280;56781;42.292;23.146;2023-01-27T08:27:51;94661.41;;;1.25;98.15
69570;BME280;56781;42.292;23.146;2023-01-27T08:30:19;94658.25;;;1.38;96.82
69570;BME280;56781;42.292;23.146;2023-01-27T08:32:47;94661.69;;;1.23;96.59
69570;BME280;56781;42.292;23.146;2023-01-27T08:35:14;94654.03;;;1.27;97.86
69570;BME280;56781;42.292;23.146;2023-01-27T08:37:41;94643.75;;;1.41;98.11
69570;BME280;56781;42.292;23.146;2023-01-27T08:40:09;94659.03;;;1.54;96.43
69570;BME280;56781;42.292;23.146;2023-01-27T08:42:37;94674.34;;;1.72;95.26
69570;BME280;56781;42.292;23.146;2023-01-27T08:45:04;94645.59;;;1.50;94.85
69570;BME280;56781;42.292;23.146;2023-01-27T08:47:31;94643.75;;;1.76;94.97
69570;BME280;56781;42.292;23.146;2023-01-27T08:49:58;94656.66;;;1.78;94.36
69570;BME280;56781;42.292;23.146;2023-01-27T08:52:26;94676.72;;;1.84;94.65
69570;BME280;56781;42.292;23.146;2023-01-27T08:54:57;94663.25;;;1.70;94.97
69570;BME280;56781;42.292;23.146;2023-01-27T08:57:24;94646.41;;;1.66;94.37
69570;BME280;56781;42.292;23.146;2023-01-27T08:59:51;94659.56;;;1.92;94.08
69570;BME280;56781;42.292;23.146;2023-01-27T09:02:18;94659.78;;;2.16;91.18
69570;BME280;56781;42.292;23.146;2023-01-27T09:04:48;94660.09;;;1.78;91.90
69570;BME280;56781;42.292;23.146;2023-01-27T09:07:15;94656.66;;;1.93;90.40
69570;BME280;56781;42.292;23.146;2023-01-27T09:09:47;94628.88;;;2.11;91.62
69570;BME280;56781;42.292;23.146;2023-01-27T09:12:16;94620.78;;;1.82;92.30
69570;BME280;56781;42.292;23.146;2023-01-27T09:14:43;94645.78;;;2.20;92.52
69570;BME280;56781;42.292;23.146;2023-01-27T09:17:10;94639.97;;;2.13;92.27
69570;BME280;56781;42.292;23.146;2023-01-27T09:19:37;94665.66;;;1.72;92.26
69570;BME280;56781;42.292;23.146;2023-01-27T09:22:04;94635.31;;;1.80;94.04
69570;BME280;56781;42.292;23.146;2023-01-27T09:24:31;94630.50;;;1.97;93.93
69570;BME280;56781;42.292;23.146;2023-01-27T09:26:58;94640.03;;;1.93;94.10
69570;BME280;56781;42.292;23.146;2023-01-27T09:29:26;94639.97;;;2.24;91.78
69570;BME280;56781;42.292;23.146;2023-01-27T09:31:55;94609.78;;;2.45;91.23
69570;BME280;56781;42.292;23.146;2023-01-27T09:34:22;94643.00;;;3.06;89.39
69570;BME280;56781;42.292;23.146;2023-01-27T09:36:53;94628.66;;;2.78;90.01
69570;BME280;56781;42.292;23.146;2023-01-27T09:39:23;94603.75;;;2.84;90.92
69570;BME280;56781;42.292;23.146;2023-01-27T09:42:40;94612.75;;;2.88;89.20
69570;BME280;56781;42.292;23.146;2023-01-27T09:45:46;94600.69;;;2.66;91.59
69570;BME280;56781;42.292;23.146;2023-01-27T09:50:56;94585.50;;;2.33;90.46
69570;BME280;56781;42.292;23.146;2023-01-27T09:56:42;94605.34;;;2.25;93.26
69570;BME280;56781;42.292;23.146;2023-01-27T09:59:29;94583.09;;;1.71;95.46
69570;BME280;56781;42.292;23.146;2023-01-27T10:10:38;94579.38;;;1.67;95.21
69570;BME280;56781;42.292;23.146;2023-01-27T10:26:58;94599.47;;;1.53;99.27
69570;BME280;56781;42.292;23.146;2023-01-27T10:29:41;94600.50;;;1.52;99.70
69570;BME280;56781;42.292;23.146;2023-01-27T10:32:24;94575.72;;;1.43;100.00
69570;BME280;56781;42.292;23.146;2023-01-27T10:37:47;94590.16;;;1.81;98.81
69570;BME280;56781;42.292;23.146;2023-01-27T10:40:30;94594.09;;;1.94;99.30
69570;BME280;56781;42.292;23.146;2023-01-27T10:45:53;94562.00;;;1.56;96.65
69570;BME280;56781;42.292;23.146;2023-01-27T10:48:37;94594.13;;;1.73;98.77
69570;BME280;56781;42.292;23.146;2023-01-27T10:51:23;94583.34;;;1.65;99.19
69570;BME280;56781;42.292;23.146;2023-01-27T10:54:18;94560.69;;;1.59;98.49
69570;BME280;56781;42.292;23.146;2023-01-27T10:57:16;94541.44;;;1.48;98.88
69570;BME280;56781;42.292;23.146;2023-01-27T11:00:04;94538.81;;;1.38;98.16
69570;BME280;56781;42.292;23.146;2023-01-27T11:05:44;94543.53;;;1.46;96.40
69570;BME280;56781;42.292;23.146;2023-01-27T11:08:30;94574.88;;;1.78;99.14
69570;BME280;56781;42.292;23.146;2023-01-27T11:11:04;94541.94;;;1.60;96.54
69570;BME280;56781;42.292;23.146;2023-01-27T11:13:53;94547.16;;;1.81;98.13
69570;BME280;56781;42.292;23.146;2023-01-27T11:16:35;94539.56;;;1.74;97.64
69570;BME280;56781;42.292;23.146;2023-01-27T11:19:34;94539.28;;;1.70;96.77
69570;BME280;56781;42.292;23.146;2023-01-27T11:21:58;94563.81;;;1.71;96.36
69570;BME280;56781;42.292;23.146;2023-01-27T11:28:24;94532.47;;;1.44;97.29
69570;BME280;56781;42.292;23.146;2023-01-27T11:31:06;94547.78;;;1.47;96.78
69570;BME280;56781;42.292;23.146;2023-01-27T11:36:45;94558.03;;;1.53;97.68
69570;BME280;56781;42.292;23.146;2023-01-27T11:39:15;94551.47;;;1.46;95.81
69570;BME280;56781;42.292;23.146;2023-01-27T11:41:50;94574.66;;;1.54;97.06
69570;BME280;56781;42.292;23.146;2023-01-27T11:44:20;94569.38;;;1.54;97.95
69570;BME280;56781;42.292;23.146;2023-01-27T11:46:48;94569.34;;;1.74;98.18
69570;BME280;56781;42.292;23.146;2023-01-27T11:49:33;94522.75;;;1.39;98.50
69570;BME280;56781;42.292;23.146;2023-01-27T11:52:22;94531.69;;;1.43;98.79
69570;BME280;56781;42.292;23.146;2023-01-27T11:55:04;94538.28;;;1.41;99.08
69570;BME280;56781;42.292;23.146;2023-01-27T11:57:32;94542.22;;;1.43;99.14
69570;BME280;56781;42.292;23.146;2023-01-27T12:00:09;94553.03;;;1.52;98.10
69570;BME280;56781;42.292;23.146;2023-01-27T12:02:58;94560.38;;;1.65;99.76
69570;BME280;56781;42.292;23.146;2023-01-27T12:05:32;94533.53;;;1.43;98.32
69570;BME280;56781;42.292;23.146;2023-01-27T12:08:01;94506.94;;;1.19;98.55
69570;BME280;56781;42.292;23.146;2023-01-27T12:10:34;94549.88;;;1.55;99.16
69570;BME280;56781;42.292;23.146;2023-01-27T12:15:50;94516.16;;;1.37;99.35
69570;BME280;56781;42.292;23.146;2023-01-27T12:18:19;94522.44;;;1.46;100.00
69570;BME280;56781;42.292;23.146;2023-01-27T12:20:49;94523.50;;;1.50;100.00
69570;BME280;56781;42.292;23.146;2023-01-27T12:23:27;94539.81;;;1.62;100.00
69570;BME280;56781;42.292;23.146;2023-01-27T12:26:03;94519.00;;;1.61;98.59
69570;BME280;56781;42.292;23.146;2023-01-27T12:31:22;94540.91;;;1.56;100.00
69570;BME280;56781;42.292;23.146;2023-01-27T12:36:36;94555.09;;;1.65;100.00
69570;BME280;56781;42.292;23.146;2023-01-27T12:39:05;94528.78;;;1.40;100.00
69570;BME280;56781;42.292;23.146;2023-01-27T12:41:49;94535.91;;;1.49;100.00
69570;BME280;56781;42.292;23.146;2023-01-27T12:44:19;94560.41;;;1.60;98.76
69570;BME280;56781;42.292;23.146;2023-01-27T12:47:00;94546.19;;;1.51;98.54
69570;BME280;56781;42.292;23.146;2023-01-27T12:49:36;94525.09;;;1.46;98.04
69570;BME280;56781;42.292;23.146;2023-01-27T12:52:16;94517.22;;;1.25;98.24
69570;BME280;56781;42.292;23.146;2023-01-27T12:54:44;94520.91;;;1.29;97.95
69570;BME280;56781;42.292;23.146;2023-01-27T12:57:14;94507.19;;;1.27;98.68
69570;BME280;56781;42.292;23.146;2023-01-27T12:59:53;94505.06;;;1.29;98.97
69570;BME280;56781;42.292;23.146;2023-01-27T13:02:24;94505.06;;;1.29;98.61
69570;BME280;56781;42.292;23.146;2023-01-27T13:04:57;94531.97;;;1.42;98.63
69570;BME280;56781;42.292;23.146;2023-01-27T13:07:46;94514.56;;;1.36;99.23
69570;BME280;56781;42.292;23.146;2023-01-27T13:10:18;94539.06;;;1.46;100.00
69570;BME280;56781;42.292;23.146;2023-01-27T13:12:51;94538.28;;;1.51;98.99
69570;BME280;56781;42.292;23.146;2023-01-27T13:15:21;94502.72;;;1.28;99.21
69570;BME280;56781;42.292;23.146;2023-01-27T13:17:54;94523.28;;;1.41;99.43
69570;BME280;56781;42.292;23.146;2023-01-27T13:23:18;94507.19;;;1.27;98.62
69570;BME280;56781;42.292;23.146;2023-01-27T13:31:41;94519.03;;;1.25;99.02
69570;BME280;56781;42.292;23.146;2023-01-27T13:34:32;94526.72;;;1.16;98.01
69570;BME280;56781;42.292;23.146;2023-01-27T13:37:23;94524.59;;;1.08;98.64
69570;BME280;56781;42.292;23.146;2023-01-27T13:45:26;94525.91;;;1.10;100.00
69570;BME280;56781;42.292;23.146;2023-01-27T13:48:03;94521.97;;;1.13;100.00
69570;BME280;56781;42.292;23.146;2023-01-27T13:50:35;94532.50;;;1.08;99.43
69570;BME280;56781;42.292;23.146;2023-01-27T13:53:05;94517.50;;;0.98;99.91
69570;BME280;56781;42.292;23.146;2023-01-27T13:58:40;94531.72;;;0.97;99.22
69570;BME280;56781;42.292;23.146;2023-01-27T14:11:51;94527.78;;;1.00;99.65
69570;BME280;56781;42.292;23.146;2023-01-27T14:14:28;94539.91;;;1.01;98.88
69570;BME280;56781;42.292;23.146;2023-01-27T14:17:30;94537.00;;;0.82;98.60
69570;BME280;56781;42.292;23.146;2023-01-27T14:23:00;94569.94;;;1.05;98.38
69570;BME280;56781;42.292;23.146;2023-01-27T14:28:50;94537.53;;;0.79;98.07
69570;BME280;56781;42.292;23.146;2023-01-27T14:40:11;94548.31;;;0.72;97.96
69570;BME280;56781;42.292;23.146;2023-01-27T14:48:43;94551.22;;;0.71;96.63
69570;BME280;56781;42.292;23.146;2023-01-27T15:06:03;94593.06;;;0.67;95.13
69570;BME280;56781;42.292;23.146;2023-01-27T15:14:18;94590.41;;;0.62;95.11
69570;BME280;56781;42.292;23.146;2023-01-27T15:22:46;94578.81;;;0.48;94.87
69570;BME280;56781;42.292;23.146;2023-01-27T15:27:59;94593.56;;;0.54;94.08
69570;BME280;56781;42.292;23.146;2023-01-27T15:30:30;94627.09;;;0.79;94.17
69570;BME280;56781;42.292;23.146;2023-01-27T15:32:57;94600.69;;;0.58;93.91